KPCD/PCD METAR and TAF weather

Enter ICAO airport designator
Station Type Date Time Source
KPCD METAR 2021/04/18 02:35 UTC NOAA

KPCD 180235Z AUTO 32007KT 10SM OVC085 11/08 A3000 RMK AO2 T01090075


Station Type Date Time Source
KPCD Decoded METAR 2021/04/18 02:35 UTC NOAA

Station name not available
Apr 17, 2021 - 10:35 PM EDT / 2021.04.18 0235 UTC
Wind: from the NW (320 degrees) at 8 MPH (7 KT):0
Visibility: 10 mile(s):0
Sky conditions: overcast
Temperature: 51.6 F (10.9 C)
Dew Point: 45.5 F (7.5 C)
Relative Humidity: 79%
Pressure (altimeter): 30 in. Hg (1015 hPa)
ob: KPCD 180235Z AUTO 32007KT 10SM OVC085 11/08 A3000 RMK AO2 T01090075
cycle: 2

Station Type Date Time Source
KPCD TAF UTC NOAA

Error!

Example: see airport list